Time;durP1;ratioP1;P1;durP2;ratioP2;P2;SDS_P1;SDS_P2;PMS_P1;PMS_P2;Temp;Humidity;BMP_temperature;BMP_pressure;BME280_temperature;BME280_humidity;BME280_pressure;Samples;Min_cycle;Max_cycle;Signal;HPM_P1;HPM_P2
2022/05/13 00:00:39;;;;;;;;;;;;;;;18.18;43.79;101042.31;4808666;29;823;-57
2022/05/13 00:03:04;;;;;;;;;;;;;;;18.19;44.00;101047.53;4809432;29;816;-57
2022/05/13 00:05:30;;;;;;;;;;;;;;;18.24;43.85;101049.44;4809080;29;812;-57
2022/05/13 00:07:55;;;;;;;;;;;;;;;18.20;43.92;101029.09;4808983;29;825;-57
2022/05/13 00:10:22;;;;;;;;;;;;;;;18.23;43.74;101023.84;4809138;29;913;-57
2022/05/13 00:12:48;;;;;;;;;;;;;;;18.24;43.77;101027.44;4808300;29;886;-57
2022/05/13 00:15:16;;;;;;;;;;;;;;;18.24;43.37;101027.44;4808812;29;1986;-57
2022/05/13 00:17:42;;;;;;;;;;;;;;;18.10;42.86;101027.16;4809422;29;918;-57
2022/05/13 00:20:08;;;;;;;;;;;;;;;17.96;42.14;101032.41;4807336;29;899;-57
2022/05/13 00:22:33;;;;;;;;;;;;;;;17.85;41.61;101022.50;4808617;29;808;-58
2022/05/13 00:24:59;;;;;;;;;;;;;;;17.73;40.85;101028.28;4808594;29;921;-58
2022/05/13 00:27:24;;;;;;;;;;;;;;;17.65;40.60;101026.91;4808954;29;1100;-58
2022/05/13 00:29:50;;;;;;;;;;;;;;;17.54;40.20;101028.81;4808858;29;1043;-58
2022/05/13 00:32:16;;;;;;;;;;;;;;;17.52;40.03;101030.22;4808869;29;741;-58
2022/05/13 00:34:41;;;;;;;;;;;;;;;17.49;39.52;101034.31;4808933;29;1907;-58
2022/05/13 00:37:07;;;;;;;;;;;;;;;17.41;39.45;101037.63;4808902;29;761;-58
2022/05/13 00:39:32;;;;;;;;;;;;;;;17.38;39.18;101036.22;4808071;29;960;-58
2022/05/13 00:42:07;;;;;;;;;;;;;;;17.33;38.91;101038.97;4812290;29;738;-58
2022/05/13 00:44:33;;;;;;;;;;;;;;;17.24;39.06;101024.94;4812419;29;786;-57
2022/05/13 00:46:59;;;;;;;;;;;;;;;17.19;39.17;101030.41;4812470;29;1052;-58
2022/05/13 00:49:26;;;;;;;;;;;;;;;17.24;38.95;101035.13;4812156;29;848;-57
2022/05/13 00:51:51;;;;;;;;;;;;;;;17.18;39.32;101039.78;4811654;29;858;-58
2022/05/13 00:54:17;;;;;;;;;;;;;;;17.18;39.32;101036.19;4810668;29;1903;-58
2022/05/13 00:56:43;;;;;;;;;;;;;;;17.35;40.75;101034.03;4811965;29;1077;-57
2022/05/13 00:59:08;;;;;;;;;;;;;;;17.72;42.18;101030.19;4812510;29;744;-57
2022/05/13 01:01:34;;;;;;;;;;;;;;;18.12;43.76;101031.31;4810411;29;1170;-58
2022/05/13 01:04:03;;;;;;;;;;;;;;;18.47;44.56;101026.81;4812249;29;897;-58
2022/05/13 01:06:29;;;;;;;;;;;;;;;18.69;45.56;101022.06;4810296;29;886;-57
2022/05/13 01:08:56;;;;;;;;;;;;;;;18.84;46.24;101027.50;4811844;29;915;-57
2022/05/13 01:11:21;;;;;;;;;;;;;;;17.91;48.49;101024.19;4810615;29;919;-58
2022/05/13 01:13:48;;;;;;;;;;;;;;;17.48;48.10;101015.34;4810232;29;1907;-58
2022/05/13 01:16:13;;;;;;;;;;;;;;;17.27;47.21;101018.06;4809737;29;1040;-57
2022/05/13 01:18:40;;;;;;;;;;;;;;;17.56;44.13;101012.88;4811784;29;834;-58
2022/05/13 01:21:06;;;;;;;;;;;;;;;17.55;42.55;101015.91;4811142;29;937;-57
2022/05/13 01:23:35;;;;;;;;;;;;;;;17.45;41.82;101008.47;4811878;29;924;-58
2022/05/13 01:26:08;;;;;;;;;;;;;;;17.41;41.14;101016.44;4811880;29;793;-58
2022/05/13 01:28:35;;;;;;;;;;;;;;;17.36;40.51;101018.34;4810985;29;1131;-58
2022/05/13 01:31:03;;;;;;;;;;;;;;;17.35;40.22;101012.03;4811284;29;1087;-58
2022/05/13 01:33:28;;;;;;;;;;;;;;;17.27;39.89;101005.16;4811752;29;1895;-58
2022/05/13 01:35:54;;;;;;;;;;;;;;;17.23;39.61;101009.53;4811294;29;856;-58
2022/05/13 01:38:21;;;;;;;;;;;;;;;17.19;39.47;101004.88;4811356;29;848;-58
2022/05/13 01:40:47;;;;;;;;;;;;;;;17.09;39.48;101009.22;4811325;29;816;-57
2022/05/13 01:43:12;;;;;;;;;;;;;;;17.04;39.34;101003.75;4810974;29;893;-59
2022/05/13 01:45:37;;;;;;;;;;;;;;;17.04;39.16;100995.50;4811445;29;1035;-58
2022/05/13 01:48:03;;;;;;;;;;;;;;;17.06;39.69;100998.78;4811595;29;760;-58
2022/05/13 01:50:29;;;;;;;;;;;;;;;17.18;40.33;101008.69;4811389;29;717;-57
2022/05/13 01:52:54;;;;;;;;;;;;;;;17.37;41.29;101006.25;4811046;29;863;-57
2022/05/13 01:55:21;;;;;;;;;;;;;;;17.54;41.97;100998.56;4810828;29;1978;-57
2022/05/13 01:57:46;;;;;;;;;;;;;;;17.63;42.65;101004.38;4811312;29;806;-57
2022/05/13 02:00:12;;;;;;;;;;;;;;;17.71;43.25;101006.56;4811313;29;997;-57
2022/05/13 02:05:21;;;;;;;;;;;;;;;17.90;43.91;101011.50;4810663;29;1511;-57
2022/05/13 02:07:47;;;;;;;;;;;;;;;17.97;44.20;101008.50;4811113;29;863;-57
2022/05/13 02:10:12;;;;;;;;;;;;;;;17.99;44.53;101009.84;4810724;29;837;-57
2022/05/13 02:12:38;;;;;;;;;;;;;;;18.03;44.67;101010.13;4811108;29;778;-57
2022/05/13 02:15:04;;;;;;;;;;;;;;;18.12;44.62;100998.28;4810615;29;1968;-57
2022/05/13 02:17:30;;;;;;;;;;;;;;;18.17;44.82;101002.94;4810625;29;709;-57
2022/05/13 02:19:55;;;;;;;;;;;;;;;18.22;44.53;101005.69;4810352;29;839;-58
2022/05/13 02:22:21;;;;;;;;;;;;;;;18.24;44.55;101002.66;4810646;29;818;-56
2022/05/13 02:24:46;;;;;;;;;;;;;;;18.25;44.57;101007.06;4810471;29;868;-57
2022/05/13 02:27:11;;;;;;;;;;;;;;;18.14;43.73;101003.50;4810928;29;1028;-57
2022/05/13 02:29:37;;;;;;;;;;;;;;;17.92;42.99;101006.56;4810906;29;811;-57
2022/05/13 02:32:02;;;;;;;;;;;;;;;17.80;42.20;101006.81;4809803;29;945;-56
2022/05/13 02:34:28;;;;;;;;;;;;;;;17.71;41.16;101003.81;4810729;29;1903;-56
2022/05/13 02:36:53;;;;;;;;;;;;;;;17.60;40.78;101005.72;4810725;29;823;-56
2022/05/13 02:39:19;;;;;;;;;;;;;;;17.49;40.60;100998.59;4810486;29;820;-57
2022/05/13 02:41:44;;;;;;;;;;;;;;;17.50;40.20;101002.16;4810056;29;898;-57
2022/05/13 02:44:10;;;;;;;;;;;;;;;17.41;39.91;100999.13;4810709;29;942;-57
2022/05/13 02:46:36;;;;;;;;;;;;;;;17.34;39.69;101010.38;4809816;29;894;-57
2022/05/13 02:49:01;;;;;;;;;;;;;;;17.33;39.37;101003.22;4810357;29;1525;-57
2022/05/13 02:51:27;;;;;;;;;;;;;;;17.26;39.31;101008.16;4810255;29;858;-56
2022/05/13 02:53:52;;;;;;;;;;;;;;;17.19;39.42;101002.94;4810159;29;1911;-57
2022/05/13 02:56:18;;;;;;;;;;;;;;;17.18;39.20;101005.94;4810416;29;776;-56
2022/05/13 02:58:43;;;;;;;;;;;;;;;17.21;39.40;101005.44;4809812;29;855;-56
2022/05/13 03:01:09;;;;;;;;;;;;;;;17.30;40.45;101009.28;4810124;29;973;-57
2022/05/13 03:03:36;;;;;;;;;;;;;;;17.50;41.16;101005.75;4809479;29;803;-57
2022/05/13 03:06:02;;;;;;;;;;;;;;;17.58;41.88;101010.66;4810301;29;912;-57
2022/05/13 03:08:27;;;;;;;;;;;;;;;17.72;42.07;101010.94;4810021;29;828;-56
2022/05/13 03:10:53;;;;;;;;;;;;;;;17.78;42.51;101026.34;4809776;29;899;-57
2022/05/13 03:13:19;;;;;;;;;;;;;;;17.84;42.81;101023.59;4809258;29;1912;-57
2022/05/13 03:15:44;;;;;;;;;;;;;;;17.92;42.94;101025.81;4809693;29;993;-57
2022/05/13 03:18:10;;;;;;;;;;;;;;;17.95;43.46;101030.78;4809143;29;1299;-54
2022/05/13 03:20:36;;;;;;;;;;;;;;;18.00;43.21;101022.50;4809270;29;1474;-58
2022/05/13 03:23:01;;;;;;;;;;;;;;;18.08;43.55;101035.72;4809210;29;872;-58
2022/05/13 03:25:27;;;;;;;;;;;;;;;18.17;43.74;101033.22;4809639;29;832;-58
2022/05/13 03:27:52;;;;;;;;;;;;;;;18.20;44.24;101043.69;4808483;29;1325;-57
2022/05/13 03:30:19;;;;;;;;;;;;;;;18.20;44.08;101042.84;4808893;29;1049;-57
2022/05/13 03:32:45;;;;;;;;;;;;;;;18.17;44.12;101037.91;4809543;29;845;-59
2022/05/13 03:35:10;;;;;;;;;;;;;;;18.16;43.99;101030.75;4809246;29;1896;-59
2022/05/13 03:37:36;;;;;;;;;;;;;;;18.09;43.50;101040.13;4809489;29;854;-58
2022/05/13 03:40:01;;;;;;;;;;;;;;;17.95;42.58;101036.28;4809769;29;884;-58
2022/05/13 03:42:27;;;;;;;;;;;;;;;17.77;41.67;101030.19;4809216;29;764;-57
2022/05/13 03:44:52;;;;;;;;;;;;;;;17.64;40.93;101036.25;4809415;29;1016;-63
2022/05/13 03:47:18;;;;;;;;;;;;;;;17.51;40.45;101043.09;4809608;29;729;-63
2022/05/13 03:49:44;;;;;;;;;;;;;;;17.44;39.87;101054.38;4808445;29;1058;-64
2022/05/13 03:52:10;;;;;;;;;;;;;;;17.42;39.28;101047.53;4809386;29;847;-62
2022/05/13 03:54:35;;;;;;;;;;;;;;;17.27;39.03;101048.31;4809021;29;1975;-61
2022/05/13 03:57:01;;;;;;;;;;;;;;;17.22;38.84;101051.88;4809372;29;757;-60
2022/05/13 03:59:27;;;;;;;;;;;;;;;17.15;38.75;101047.72;4809517;29;775;-60
2022/05/13 04:01:52;;;;;;;;;;;;;;;17.18;39.02;101049.91;4809032;29;984;-62
2022/05/13 04:04:21;;;;;;;;;;;;;;;17.29;40.23;101059.84;4808709;29;887;-60
2022/05/13 04:09:30;;;;;;;;;;;;;;;17.72;41.93;101070.63;4808930;29;745;-59
2022/05/13 04:17:24;;;;;;;;;;;;;;;18.01;43.14;101075.63;4809055;29;932;-58
2022/05/13 04:19:49;;;;;;;;;;;;;;;18.05;43.30;101080.28;4809322;29;782;-59
2022/05/13 04:22:15;;;;;;;;;;;;;;;18.13;43.54;101078.91;4809169;29;917;-57
2022/05/13 04:24:40;;;;;;;;;;;;;;;18.27;43.60;101076.41;4809179;29;785;-58
2022/05/13 04:27:06;;;;;;;;;;;;;;;18.22;43.89;101079.19;4808082;29;1172;-57
2022/05/13 04:29:33;;;;;;;;;;;;;;;18.20;44.05;101075.88;4808925;29;1571;-59
2022/05/13 04:31:58;;;;;;;;;;;;;;;18.28;43.99;101072.56;4809082;29;1036;-59
2022/05/13 04:34:24;;;;;;;;;;;;;;;18.36;43.92;101073.94;4808421;29;1907;-59
2022/05/13 04:36:49;;;;;;;;;;;;;;;18.39;44.28;101074.19;4808750;29;1130;-58
2022/05/13 04:39:15;;;;;;;;;;;;;;;18.41;44.26;101065.66;4809219;29;780;-59
2022/05/13 04:44:24;;;;;;;;;;;;;;;18.23;42.92;101075.31;4808477;29;884;-60
2022/05/13 04:46:49;;;;;;;;;;;;;;;18.07;42.33;101071.75;4808917;29;1000;-60
2022/05/13 04:49:15;;;;;;;;;;;;;;;17.90;41.28;101072.03;4808412;29;888;-59
2022/05/13 04:51:40;;;;;;;;;;;;;;;17.76;40.46;101078.06;4808865;29;949;-60
2022/05/13 04:54:06;;;;;;;;;;;;;;;17.65;39.84;101086.59;4807972;29;1899;-60
2022/05/13 04:56:31;;;;;;;;;;;;;;;17.53;39.49;101092.31;4808634;29;1395;-59
2022/05/13 04:58:57;;;;;;;;;;;;;;;17.44;39.12;101090.09;4808423;29;924;-60
2022/05/13 05:01:23;;;;;;;;;;;;;;;17.40;38.95;101091.78;4803504;29;1160;-58
2022/05/13 05:03:48;;;;;;;;;;;;;;;17.33;38.92;101096.69;4808349;29;868;-62
2022/05/13 05:06:14;;;;;;;;;;;;;;;17.33;38.75;101093.13;4808275;29;862;-58
2022/05/13 05:08:40;;;;;;;;;;;;;;;17.25;38.74;101094.44;4808792;29;957;-59
2022/05/13 05:11:05;;;;;;;;;;;;;;;17.19;38.42;101098.28;4808274;29;781;-61
2022/05/13 05:13:38;;;;;;;;;;;;;;;17.18;38.22;101104.88;4808275;29;1972;-58
2022/05/13 05:16:05;;;;;;;;;;;;;;;17.12;38.34;101103.22;4808363;29;1032;-57
2022/05/13 05:18:31;;;;;;;;;;;;;;;17.10;38.48;101103.50;4807907;29;850;-58
2022/05/13 05:20:57;;;;;;;;;;;;;;;17.22;39.23;101106.84;4808536;29;940;-62
2022/05/13 05:23:23;;;;;;;;;;;;;;;17.36;40.39;101107.16;4808451;29;765;-61
2022/05/13 05:25:48;;;;;;;;;;;;;;;17.57;41.47;101107.19;4808192;29;796;-58
2022/05/13 05:28:14;;;;;;;;;;;;;;;17.74;42.42;101116.03;4811004;29;1036;-60
2022/05/13 05:30:39;;;;;;;;;;;;;;;17.82;43.30;101117.38;4811311;29;989;-59
2022/05/13 05:33:05;;;;;;;;;;;;;;;17.98;43.69;101128.44;4811798;29;794;-62
2022/05/13 05:35:31;;;;;;;;;;;;;;;18.02;44.09;101122.13;4811617;29;1915;-61
2022/05/13 05:37:56;;;;;;;;;;;;;;;18.12;44.26;101124.06;4811730;29;819;-58
2022/05/13 05:40:22;;;;;;;;;;;;;;;18.19;44.63;101123.75;4811408;29;802;-60
2022/05/13 05:42:48;;;;;;;;;;;;;;;18.27;44.72;101128.72;4811656;29;839;-58
2022/05/13 05:45:15;;;;;;;;;;;;;;;18.27;44.90;101123.22;4810497;29;862;-58
2022/05/13 05:47:40;;;;;;;;;;;;;;;18.32;45.01;101117.69;4810807;29;784;-59
2022/05/13 05:50:06;;;;;;;;;;;;;;;18.29;44.28;101129.28;4811317;29;761;-59
2022/05/13 05:52:32;;;;;;;;;;;;;;;18.20;43.65;101120.75;4811538;29;833;-59
2022/05/13 05:57:54;;;;;;;;;;;;;;;17.77;41.58;101123.72;4810783;29;933;-65
2022/05/13 06:00:20;;;;;;;;;;;;;;;17.66;41.20;101115.75;4811005;29;996;-63
2022/05/13 06:02:45;;;;;;;;;;;;;;;17.56;40.58;101116.56;4810785;29;808;-59
2022/05/13 06:05:11;;;;;;;;;;;;;;;17.53;39.75;101119.81;4811006;29;820;-64
2022/05/13 06:07:36;;;;;;;;;;;;;;;17.42;39.62;101110.75;4811134;29;813;-63
2022/05/13 06:10:01;;;;;;;;;;;;;;;17.36;39.63;101109.91;4810801;29;906;-63
2022/05/13 06:12:27;;;;;;;;;;;;;;;17.26;39.32;101112.59;4811148;29;848;-64
2022/05/13 06:14:52;;;;;;;;;;;;;;;17.24;39.35;101110.13;4810619;29;1915;-62
2022/05/13 06:17:18;;;;;;;;;;;;;;;17.21;39.26;101113.44;4810622;29;873;-61
2022/05/13 06:19:43;;;;;;;;;;;;;;;17.16;39.12;101107.91;4810933;29;879;-62
2022/05/13 06:22:09;;;;;;;;;;;;;;;17.13;39.10;101113.13;4810391;29;918;-61
2022/05/13 06:24:34;;;;;;;;;;;;;;;17.20;39.60;101108.19;4810564;29;837;-63
2022/05/13 06:27:00;;;;;;;;;;;;;;;17.50;41.59;101107.47;4810834;29;749;-63
2022/05/13 06:29:26;;;;;;;;;;;;;;;17.84;43.44;101106.13;4810263;29;1178;-63
2022/05/13 06:31:52;;;;;;;;;;;;;;;18.23;44.92;101109.19;4810904;29;1005;-60
2022/05/13 06:34:18;;;;;;;;;;;;;;;18.47;45.57;101111.34;4808927;29;1907;-60
2022/05/13 06:36:43;;;;;;;;;;;;;;;18.68;46.23;101103.03;4810525;29;802;-62
2022/05/13 06:39:09;;;;;;;;;;;;;;;18.78;46.61;101108.53;4810443;29;888;-59
2022/05/13 06:41:37;;;;;;;;;;;;;;;18.69;46.51;101108.28;4810599;29;844;-61
2022/05/13 06:44:06;;;;;;;;;;;;;;;18.47;45.51;101105.84;4810549;29;854;-59
2022/05/13 06:46:33;;;;;;;;;;;;;;;18.26;44.42;101114.13;4808020;29;993;-61
2022/05/13 06:48:59;;;;;;;;;;;;;;;18.10;43.11;101112.47;4810385;29;813;-61
2022/05/13 06:51:25;;;;;;;;;;;;;;;17.99;42.31;101113.59;4810141;29;825;-61
2022/05/13 06:53:50;;;;;;;;;;;;;;;17.79;41.34;101107.78;4810105;29;1974;-60
2022/05/13 06:56:16;;;;;;;;;;;;;;;17.72;40.82;101111.88;4810110;29;822;-61
2022/05/13 06:58:41;;;;;;;;;;;;;;;17.63;40.25;101111.59;4810208;29;836;-60
2022/05/13 07:01:07;;;;;;;;;;;;;;;17.52;39.69;101104.44;4809604;29;866;-61
2022/05/13 07:03:33;;;;;;;;;;;;;;;17.45;39.66;101116.50;4809763;29;893;-62
2022/05/13 07:05:58;;;;;;;;;;;;;;;17.33;39.41;101107.69;4809968;29;781;-62
2022/05/13 07:08:24;;;;;;;;;;;;;;;17.28;39.41;101105.75;4809914;29;853;-62
2022/05/13 07:10:49;;;;;;;;;;;;;;;17.25;39.32;101108.19;4809825;29;903;-61
2022/05/13 07:13:15;;;;;;;;;;;;;;;17.26;38.75;101104.34;4809500;29;914;-60
2022/05/13 07:15:43;;;;;;;;;;;;;;;17.17;38.86;101108.75;4809247;29;1911;-60
2022/05/13 07:18:09;;;;;;;;;;;;;;;17.21;39.59;101096.94;4809464;29;916;-63
2022/05/13 07:20:35;;;;;;;;;;;;;;;17.47;41.48;101101.66;4809666;29;828;-63
2022/05/13 07:23:00;;;;;;;;;;;;;;;17.85;43.26;101099.50;4809709;29;881;-62
2022/05/13 07:25:26;;;;;;;;;;;;;;;18.18;44.91;101100.09;4809421;29;908;-63
2022/05/13 07:27:51;;;;;;;;;;;;;;;18.45;46.16;101103.38;4809265;29;1043;-63
2022/05/13 07:30:17;;;;;;;;;;;;;;;18.69;46.69;101100.03;4808997;29;976;-63
2022/05/13 07:32:42;;;;;;;;;;;;;;;18.80;47.02;101093.38;4809323;29;812;-62
2022/05/13 07:35:08;;;;;;;;;;;;;;;18.66;46.36;101095.03;4809613;29;1907;-63
2022/05/13 07:37:34;;;;;;;;;;;;;;;18.43;45.06;101102.81;4809281;29;863;-63
2022/05/13 07:42:46;;;;;;;;;;;;;;;17.99;42.66;101097.88;4781453;29;1070;-64
2022/05/13 07:45:11;;;;;;;;;;;;;;;17.88;41.89;101098.97;4808992;29;1000;-65
2022/05/13 07:47:39;;;;;;;;;;;;;;;17.82;40.85;101098.13;4809583;29;804;-62
2022/05/13 07:50:05;;;;;;;;;;;;;;;17.74;40.40;101091.28;4809049;29;809;-65
2022/05/13 07:52:31;;;;;;;;;;;;;;;17.62;39.99;101090.69;4808953;29;855;-65
2022/05/13 07:54:56;;;;;;;;;;;;;;;17.53;39.71;101092.31;4808915;29;1899;-62
2022/05/13 07:57:22;;;;;;;;;;;;;;;17.47;39.53;101079.69;4808645;29;1016;-64
2022/05/13 08:02:37;;;;;;;;;;;;;;;17.35;39.33;101074.41;4791106;29;627;-63
2022/05/13 08:05:02;;;;;;;;;;;;;;;17.33;39.04;101074.69;4807275;29;848;-61
2022/05/13 08:07:28;;;;;;;;;;;;;;;17.27;38.89;101073.03;4808516;29;803;-63
2022/05/13 08:09:53;;;;;;;;;;;;;;;17.25;38.97;101066.97;4809188;29;836;-63
2022/05/13 08:12:18;;;;;;;;;;;;;;;17.21;39.11;101071.38;4809190;29;805;-64
2022/05/13 08:14:44;;;;;;;;;;;;;;;17.35;40.10;101064.25;4808391;29;1974;-60
2022/05/13 08:17:09;;;;;;;;;;;;;;;17.49;40.96;101070.06;4808468;29;1084;-63
2022/05/13 08:19:35;;;;;;;;;;;;;;;17.65;42.11;101076.41;4809188;29;821;-60
2022/05/13 08:22:00;;;;;;;;;;;;;;;17.76;42.81;101069.81;4808743;29;850;-62
2022/05/13 08:24:26;;;;;;;;;;;;;;;17.87;43.47;101067.06;4809213;29;757;-61
2022/05/13 08:26:51;;;;;;;;;;;;;;;17.95;44.12;101063.81;4808980;29;829;-61
2022/05/13 08:29:17;;;;;;;;;;;;;;;18.02;44.18;101058.84;4808423;29;1113;-62
2022/05/13 08:31:42;;;;;;;;;;;;;;;18.12;44.45;101064.31;4808373;29;1064;-62
2022/05/13 08:34:09;;;;;;;;;;;;;;;18.17;44.78;101068.19;4809013;29;1904;-61
2022/05/13 08:36:34;;;;;;;;;;;;;;;18.23;44.98;101067.06;4808452;29;860;-60
2022/05/13 08:39:00;;;;;;;;;;;;;;;18.26;45.11;101064.59;4808671;29;783;-63
2022/05/13 08:41:48;;;;;;;;;;;;;;;18.35;45.21;101061.28;4808841;29;885;-61
2022/05/13 08:44:14;;;;;;;;;;;;;;;18.38;45.25;101056.00;4808646;29;832;-61
2022/05/13 08:46:40;;;;;;;;;;;;;;;18.43;45.42;101058.75;4807164;29;1215;-63
2022/05/13 08:49:29;;;;;;;;;;;;;;;18.42;45.28;101048.84;4808407;29;912;-63
2022/05/13 08:51:55;;;;;;;;;;;;;;;18.26;43.89;101039.00;4807119;29;798;-59
2022/05/13 08:54:21;;;;;;;;;;;;;;;18.11;43.27;101054.41;4808474;29;1888;-59
2022/05/13 08:56:48;;;;;;;;;;;;;;;18.02;42.31;101058.00;4808712;29;865;-59
2022/05/13 08:59:13;;;;;;;;;;;;;;;17.87;41.65;101047.81;4808117;29;726;-58
2022/05/13 09:01:57;;;;;;;;;;;;;;;17.81;41.01;101044.25;4809195;29;1095;-60
2022/05/13 09:04:22;;;;;;;;;;;;;;;17.72;40.25;101040.38;4811680;29;837;-58
2022/05/13 09:06:49;;;;;;;;;;;;;;;17.65;39.80;101043.41;4811975;29;854;-58
2022/05/13 09:09:14;;;;;;;;;;;;;;;17.54;39.59;101039.81;4812241;29;853;-58
2022/05/13 09:12:01;;;;;;;;;;;;;;;17.47;39.55;101044.75;4811924;29;841;-58
2022/05/13 09:14:52;;;;;;;;;;;;;;;17.39;39.33;101043.38;4810406;29;1964;-60
2022/05/13 09:17:29;;;;;;;;;;;;;;;17.28;39.47;101038.97;4810557;29;891;-59
2022/05/13 09:20:04;;;;;;;;;;;;;;;17.34;39.13;101034.31;4811849;29;961;-58
2022/05/13 09:22:33;;;;;;;;;;;;;;;17.23;38.93;101030.72;4811756;29;795;-59
2022/05/13 09:24:58;;;;;;;;;;;;;;;17.19;39.21;101043.34;4811515;29;861;-60
2022/05/13 09:27:24;;;;;;;;;;;;;;;17.18;39.06;101030.69;4811446;29;1205;-59
2022/05/13 09:29:49;;;;;;;;;;;;;;;17.27;39.65;101034.56;4811791;29;976;-59
2022/05/13 09:32:23;;;;;;;;;;;;;;;17.53;41.07;101029.94;4811081;29;903;-58
2022/05/13 09:34:50;;;;;;;;;;;;;;;17.87;43.43;101028.56;4811917;29;1904;-61
2022/05/13 09:37:20;;;;;;;;;;;;;;;18.23;45.01;101023.84;4811492;29;802;-61
2022/05/13 09:39:46;;;;;;;;;;;;;;;18.52;46.31;101017.69;4811287;29;816;-61
2022/05/13 09:42:22;;;;;;;;;;;;;;;18.76;47.32;101020.66;4811328;29;828;-63
2022/05/13 09:44:48;;;;;;;;;;;;;;;18.71;47.73;101022.59;4810985;29;945;-61
2022/05/13 09:47:15;;;;;;;;;;;;;;;18.49;46.91;101012.75;4811150;29;755;-62
2022/05/13 09:49:46;;;;;;;;;;;;;;;17.95;46.37;101011.53;4811432;29;780;-62
2022/05/13 09:52:12;;;;;;;;;;;;;;;17.47;45.85;101008.19;4811205;29;732;-62
2022/05/13 09:54:41;;;;;;;;;;;;;;;17.87;43.13;101001.88;4811198;29;1982;-61
2022/05/13 09:57:07;;;;;;;;;;;;;;;17.81;42.08;100997.47;4811531;29;770;-62
2022/05/13 09:59:39;;;;;;;;;;;;;;;17.69;41.72;100999.69;4810646;29;827;-62
2022/05/13 10:02:21;;;;;;;;;;;;;;;17.68;41.21;100989.78;4811026;29;988;-63
2022/05/13 10:05:07;;;;;;;;;;;;;;;17.62;40.63;100995.28;4811265;29;931;-63
2022/05/13 10:07:32;;;;;;;;;;;;;;;17.56;40.22;100987.31;4810447;29;2125;-63
2022/05/13 10:15:28;;;;;;;;;;;;;;;17.39;39.63;100991.16;4797144;29;1895;-62
2022/05/13 10:17:56;;;;;;;;;;;;;;;17.37;39.53;100982.34;4811034;29;840;-63
2022/05/13 10:20:26;;;;;;;;;;;;;;;17.28;39.58;100984.81;4809982;29;810;-68
2022/05/13 10:22:53;;;;;;;;;;;;;;;17.31;39.47;100982.63;4810648;29;731;-62
2022/05/13 10:25:24;;;;;;;;;;;;;;;17.23;39.73;100973.00;4809104;29;876;-61
2022/05/13 10:28:16;;;;;;;;;;;;;;;17.23;39.65;100975.75;4809294;29;1122;-61
2022/05/13 10:30:41;;;;;;;;;;;;;;;17.17;39.37;100972.16;4808316;29;1282;-62
2022/05/13 10:33:46;;;;;;;;;;;;;;;17.20;39.18;100970.78;4810379;29;864;-64
2022/05/13 10:36:15;;;;;;;;;;;;;;;17.15;39.33;100963.34;4771991;30;1212;-64
2022/05/13 10:38:56;;;;;;;;;;;;;;;17.24;39.74;100966.41;4772642;30;805;-62
2022/05/13 10:41:22;;;;;;;;;;;;;;;17.56;42.08;100968.06;4787669;29;1036;-66
2022/05/13 10:43:51;;;;;;;;;;;;;;;17.90;43.81;100961.97;4810290;29;794;-62
2022/05/13 10:46:26;;;;;;;;;;;;;;;18.22;45.14;100955.31;4810292;29;1075;-62
2022/05/13 10:48:52;;;;;;;;;;;;;;;18.46;46.25;100953.56;4809822;29;868;-63
2022/05/13 10:51:23;;;;;;;;;;;;;;;18.46;46.44;100959.06;4808718;29;983;-64
2022/05/13 10:53:52;;;;;;;;;;;;;;;18.28;45.72;100945.94;4810077;29;1982;-65
2022/05/13 10:56:21;;;;;;;;;;;;;;;18.16;44.67;100939.91;4810460;29;749;-66
2022/05/13 10:58:53;;;;;;;;;;;;;;;18.02;43.54;100937.78;4808280;29;913;-67
2022/05/13 11:01:21;;;;;;;;;;;;;;;17.92;42.48;100941.38;4809672;29;1016;-67
2022/05/13 11:03:55;;;;;;;;;;;;;;;17.81;41.63;100927.88;4809654;29;839;-67
2022/05/13 11:06:31;;;;;;;;;;;;;;;17.74;41.01;100937.25;4809961;29;1527;-66
2022/05/13 11:09:16;;;;;;;;;;;;;;;17.60;40.84;100930.69;4810464;29;737;-66
2022/05/13 11:11:43;;;;;;;;;;;;;;;17.62;40.30;100928.47;4808487;29;789;-66
2022/05/13 11:14:27;;;;;;;;;;;;;;;17.53;40.10;100919.09;4809576;29;1983;-64
2022/05/13 11:17:07;;;;;;;;;;;;;;;17.47;39.96;100923.78;4809794;29;949;-66
2022/05/13 11:19:48;;;;;;;;;;;;;;;17.42;39.81;100919.13;4792606;29;792;-66
2022/05/13 11:22:28;;;;;;;;;;;;;;;17.36;39.86;100909.25;4809684;29;819;-65
2022/05/13 11:28:12;;;;;;;;;;;;;;;17.35;39.68;100907.59;4809039;29;1299;-62
2022/05/13 11:30:42;;;;;;;;;;;;;;;17.25;39.76;100913.91;4809478;29;977;-62
2022/05/13 11:33:16;;;;;;;;;;;;;;;17.22;39.80;100902.63;4809584;29;749;-63
2022/05/13 11:36:02;;;;;;;;;;;;;;;17.21;39.48;100895.50;4809409;29;1899;-62
2022/05/13 11:38:46;;;;;;;;;;;;;;;17.18;39.36;100896.03;4809150;29;1487;-61
2022/05/13 11:41:13;;;;;;;;;;;;;;;17.15;39.49;100900.16;4808735;29;913;-62
2022/05/13 11:43:56;;;;;;;;;;;;;;;17.17;39.71;100899.91;4809124;29;829;-61
2022/05/13 11:46:31;;;;;;;;;;;;;;;17.36;40.77;100887.25;4807960;29;1040;-62
2022/05/13 11:49:00;;;;;;;;;;;;;;;17.51;41.50;100888.34;4809526;29;1028;-61
2022/05/13 11:51:28;;;;;;;;;;;;;;;17.62;42.53;100887.22;4807938;29;844;-64
2022/05/13 11:53:59;;;;;;;;;;;;;;;17.77;42.71;100883.63;4807595;29;1984;-65
2022/05/13 11:56:31;;;;;;;;;;;;;;;17.83;43.37;100876.16;4807774;29;2436;-60
2022/05/13 11:58:56;;;;;;;;;;;;;;;17.89;43.81;100877.78;4809722;29;832;-61
2022/05/13 12:01:39;;;;;;;;;;;;;;;17.98;44.22;100870.66;4808932;29;1020;-61
2022/05/13 12:04:11;;;;;;;;;;;;;;;18.06;44.29;100867.31;4809200;29;838;-61
2022/05/13 12:06:52;;;;;;;;;;;;;;;18.13;44.22;100861.50;4809092;29;839;-60
2022/05/13 12:09:17;;;;;;;;;;;;;;;18.19;44.40;100859.53;4809645;29;764;-62
2022/05/13 12:11:48;;;;;;;;;;;;;;;18.18;44.84;100857.91;4808641;29;856;-62
2022/05/13 12:14:32;;;;;;;;;;;;;;;18.25;44.51;100859.22;4807887;29;1907;-63
2022/05/13 12:17:10;;;;;;;;;;;;;;;18.28;44.72;100855.09;4808912;29;1005;-63
2022/05/13 12:19:56;;;;;;;;;;;;;;;18.31;44.45;100846.28;4808522;29;827;-63
2022/05/13 12:22:24;;;;;;;;;;;;;;;18.15;43.66;100855.72;4789631;29;1049;-64
2022/05/13 12:24:57;;;;;;;;;;;;;;;18.06;42.85;100845.31;4809397;29;773;-63
2022/05/13 12:27:29;;;;;;;;;;;;;;;17.93;42.10;100838.47;4808618;29;1265;-62
2022/05/13 12:29:59;;;;;;;;;;;;;;;17.84;41.57;100847.53;4808579;29;985;-66
2022/05/13 12:32:35;;;;;;;;;;;;;;;17.77;40.71;100851.44;4808202;29;943;-62
2022/05/13 12:37:47;;;;;;;;;;;;;;;17.58;40.44;100839.38;4812042;29;841;-65
2022/05/13 12:40:22;;;;;;;;;;;;;;;17.55;40.22;100828.94;4812507;29;893;-65
2022/05/13 12:42:47;;;;;;;;;;;;;;;17.51;39.86;100838.84;4811873;29;908;-65
2022/05/13 12:45:22;;;;;;;;;;;;;;;17.45;39.96;100830.59;4812357;29;1060;-63
2022/05/13 12:48:09;;;;;;;;;;;;;;;17.41;39.80;100842.44;4812063;29;1481;-62
2022/05/13 12:51:13;;;;;;;;;;;;;;;17.39;39.58;100836.38;4812314;29;848;-62
2022/05/13 12:53:43;;;;;;;;;;;;;;;17.31;39.85;100829.53;4792000;30;1961;-61
2022/05/13 12:56:20;;;;;;;;;;;;;;;17.31;39.52;100835.03;4776476;30;1178;-65
2022/05/13 12:58:47;;;;;;;;;;;;;;;17.24;39.64;100827.06;4803944;29;926;-61
2022/05/13 13:01:12;;;;;;;;;;;;;;;17.20;39.37;100823.22;4810405;29;985;-60
2022/05/13 13:03:38;;;;;;;;;;;;;;;17.23;40.00;100819.91;4801175;29;1324;-62
2022/05/13 13:06:06;;;;;;;;;;;;;;;17.38;40.89;100823.75;4792984;30;859;-63
2022/05/13 13:08:36;;;;;;;;;;;;;;;17.72;42.40;100812.13;4794528;29;894;-62
2022/05/13 13:11:03;;;;;;;;;;;;;;;18.05;44.08;100813.38;4811854;29;800;-61
2022/05/13 13:13:47;;;;;;;;;;;;;;;18.34;45.15;100801.69;4810832;29;941;-61
2022/05/13 13:16:33;;;;;;;;;;;;;;;18.56;46.21;100792.97;4811458;29;1027;-65
2022/05/13 13:19:08;;;;;;;;;;;;;;;18.68;46.56;100789.03;4811741;29;816;-63
2022/05/13 13:21:33;;;;;;;;;;;;;;;18.56;45.93;100792.97;4811642;29;910;-65
2022/05/13 13:24:00;;;;;;;;;;;;;;;18.38;44.90;100786.22;4811918;29;737;-64
2022/05/13 13:26:25;;;;;;;;;;;;;;;18.24;43.60;100782.44;4812156;29;801;-63
2022/05/13 13:28:51;;;;;;;;;;;;;;;18.08;42.54;100785.28;4809857;29;1227;-62
2022/05/13 13:31:25;;;;;;;;;;;;;;;18.02;41.78;100783.69;4810427;29;1106;-63